SLRY  Reyes Airport

Add Bookmark

Reyes, Bolivia

Status IATA
Operational REY
Latitude Longitude
14° 18' 15" S 67° 21' 12" W
-14.304400 -67.353401
Local (DST -4) UTC (GMT -4)
Aug 30, 2014 04:10 Aug 30, 2014 08:10
Sunrise-Sunset Local UTC
Begin Civil Twilight 06:12 10:12
Sunrise 06:34 10:34
Sunset 06:25 22:25
End Civil Twilight 06:47 22:47

Current Weather

METAR Observed MVFR
SLRY 292200Z 32003KT 8000 FEW020 31/21 Q1011 Fri, Aug 29, 2014 @ 22:00 UTC
(10 Hours, 10 Minutes ago)
Marginal Visual Flight Rules
Wind Visibility Clouds Conditions
320° at 3 knots (6 kph) 8000 meters
  • Few at 2,000' AGL
  • No significant weather
Temperatures Readings Precipitation
Current Temp 31°C (88°F)
Dewpoint 21°C (70°F)
Heat Index 34°C (93°F)
Humidity 55%
Altimeter 29.85"Hg
Sea Level Pressure 1011mb
Field Elevation 918.64'
None Recorded

Additional weather within a 92.6km radius of SLRY

Map ICAO Location
SLRQ 20.7km S (229°)

24 Hour Weather History

Loading
-

24 Hour Weather Graphs

Loading
-

CheckWX.com is intended as a tool to help pilots better visualize weather data. It is not intended as a substitute for an official weather briefing obtained from a Flight Service Station. CheckWX.com does not meet the FAA requirements for an official pre-flight weather briefing. Therefore, it's important that pilots still call and obtain an official FSS pre-flight weather briefing.